Time;durP1;ratioP1;P1;durP2;ratioP2;P2;SDS_P1;SDS_P2;PMS_P1;PMS_P2;Temp;Humidity;BMP_temperature;BMP_pressure;BME280_temperature;BME280_humidity;BME280_pressure;Samples;Min_cycle;Max_cycle;Signal;HPM_P1;HPM_P2
2022/08/09 00:00:10;;;;;;;9.00;4.30;;;;;;;18.15;68.76;100072.16;6207387;22;20015;-71
2022/08/09 00:02:35;;;;;;;4.18;3.53;;;;;;;18.03;69.15;100073.31;6204124;22;20470;-72
2022/08/09 00:05:00;;;;;;;7.93;4.10;;;;;;;17.92;69.78;100066.25;6229977;22;20443;-71
2022/08/09 00:07:25;;;;;;;5.43;3.45;;;;;;;17.92;69.83;100062.72;6232028;22;20026;-68
2022/08/09 00:09:50;;;;;;;5.47;4.00;;;;;;;17.88;70.04;100054.06;6232000;22;20121;-70
2022/08/09 00:12:15;;;;;;;6.75;4.28;;;;;;;17.88;70.27;100037.88;6229840;22;20047;-70
2022/08/09 00:14:40;;;;;;;7.38;4.20;;;;;;;17.91;70.24;100029.50;6232416;22;20451;-71
2022/08/09 00:17:05;;;;;;;5.65;3.75;;;;;;;17.88;70.31;100016.28;6235447;22;20019;-73
2022/08/09 00:19:30;;;;;;;6.93;3.80;;;;;;;17.87;70.44;100008.34;6205899;22;20022;-71
2022/08/09 00:21:55;;;;;;;6.18;4.28;;;;;;;17.84;70.62;99993.28;6230188;22;20016;-71
2022/08/09 00:24:19;;;;;;;4.82;3.80;;;;;;;17.81;70.39;99992.75;6230238;22;20016;-73
2022/08/09 00:26:44;;;;;;;7.53;3.80;;;;;;;17.77;70.85;99994.88;6229740;22;20019;-72
2022/08/09 00:29:09;;;;;;;6.95;4.32;;;;;;;17.76;70.84;99993.19;6230660;22;20022;-74
2022/08/09 00:31:34;;;;;;;6.05;4.03;;;;;;;17.73;70.76;99996.16;6231192;22;20016;-72
2022/08/09 00:33:59;;;;;;;7.75;4.38;;;;;;;17.69;71.16;99990.25;6232203;22;20016;-72
2022/08/09 00:36:24;;;;;;;6.18;4.57;;;;;;;17.68;71.00;99985.84;6233052;22;20084;-71
2022/08/09 00:38:48;;;;;;;6.95;3.70;;;;;;;17.70;70.91;99996.50;6214846;22;20035;-77
2022/08/09 00:41:13;;;;;;;7.05;4.30;;;;;;;17.65;71.12;99994.22;6231383;22;20069;-76
2022/08/09 00:43:39;;;;;;;4.93;3.67;;;;;;;17.63;71.53;99992.66;6230020;22;20038;-76
2022/08/09 00:46:05;;;;;;;5.75;3.65;;;;;;;17.61;71.44;99981.97;6202871;22;20396;-71
2022/08/09 00:48:30;;;;;;;6.85;4.40;;;;;;;17.60;71.70;99985.69;6229708;22;20025;-70
2022/08/09 00:50:55;;;;;;;5.28;4.43;;;;;;;17.60;71.80;99984.84;6229635;22;20043;-69
2022/08/09 00:53:20;;;;;;;5.93;3.60;;;;;;;17.59;71.79;99964.28;6229940;22;20015;-73
2022/08/09 00:55:45;;;;;;;5.38;4.07;;;;;;;17.55;70.78;99960.16;6228196;22;20083;-73
2022/08/09 00:58:10;;;;;;;4.97;3.75;;;;;;;17.56;70.02;99951.09;6228351;22;20043;-68
2022/08/09 01:00:40;;;;;;;5.63;3.80;;;;;;;17.60;69.08;99972.22;6229586;22;20352;-71
2022/08/09 01:03:14;;;;;;;7.15;3.67;;;;;;;17.60;68.14;99990.25;6228253;22;20430;-66
2022/08/09 01:05:43;;;;;;;6.32;3.95;;;;;;;17.57;66.61;99999.47;6202517;22;20463;-69
2022/08/09 01:08:14;;;;;;;5.43;4.20;;;;;;;17.58;67.42;100009.25;6202372;22;20022;-72
2022/08/09 01:10:54;;;;;;;9.43;3.55;;;;;;;17.54;67.12;100009.69;6229810;22;20016;-71
2022/08/09 01:13:47;;;;;;;6.78;4.07;;;;;;;17.58;67.37;99994.91;6239707;22;20020;-68
2022/08/09 01:16:13;;;;;;;9.98;4.50;;;;;;;17.53;66.95;99987.25;6228142;22;20043;-68
2022/08/09 01:18:42;;;;;;;8.30;4.28;;;;;;;17.54;66.95;99988.09;6227885;22;20016;-69
2022/08/09 01:21:10;;;;;;;6.47;4.32;;;;;;;17.54;66.20;99997.06;6229182;22;20098;-69
2022/08/09 01:23:53;;;;;;;5.78;3.78;;;;;;;17.50;66.67;99992.09;6229496;22;20019;-68
2022/08/09 01:26:32;;;;;;;6.22;4.43;;;;;;;17.53;66.18;100002.59;6229187;22;20534;-68
2022/08/09 01:28:59;;;;;;;6.72;4.10;;;;;;;17.48;66.32;100007.56;6228920;22;20312;-68
2022/08/09 01:31:26;;;;;;;10.90;5.18;;;;;;;17.45;66.07;100015.94;6229356;22;20046;-68
2022/08/09 01:33:53;;;;;;;6.05;3.85;;;;;;;17.48;68.60;100023.75;6229534;22;20458;-69
2022/08/09 01:36:21;;;;;;;5.80;4.25;;;;;;;17.46;69.95;100012.25;6231483;22;20015;-68
2022/08/09 01:38:49;;;;;;;8.38;4.65;;;;;;;17.42;71.01;100014.38;6230473;22;20015;-69
2022/08/09 01:41:28;;;;;;;5.22;4.15;;;;;;;17.49;71.05;100014.66;6236457;22;20065;-70
2022/08/09 01:43:56;;;;;;;4.78;3.80;;;;;;;17.48;71.85;100013.81;6241017;22;20035;-75
2022/08/09 01:46:28;;;;;;;5.85;4.00;;;;;;;17.51;72.05;100018.91;6240647;22;20067;-72
2022/08/09 01:48:56;;;;;;;10.10;4.50;;;;;;;17.51;72.25;100015.34;6235938;22;20015;-76
2022/08/09 01:51:21;;;;;;;5.95;4.15;;;;;;;17.49;73.20;100014.66;6229178;22;20016;-73
2022/08/09 01:53:47;;;;;;;7.88;4.50;;;;;;;17.50;73.09;100019.88;6227876;22;20027;-71
2022/08/09 01:56:13;;;;;;;6.53;4.15;;;;;;;17.51;73.90;100024.28;6229029;22;20019;-71
2022/08/09 01:58:41;;;;;;;6.13;3.80;;;;;;;17.52;74.09;100020.59;6227584;22;20016;-69
2022/08/09 02:01:08;;;;;;;7.80;4.47;;;;;;;17.54;74.45;100028.56;6229235;22;20019;-69
2022/08/09 02:03:36;;;;;;;7.68;4.43;;;;;;;17.58;74.50;100032.66;6229380;22;20024;-68
2022/08/09 02:06:03;;;;;;;5.90;4.13;;;;;;;17.61;73.31;100029.66;6231292;22;20042;-67
2022/08/09 02:08:30;;;;;;;6.60;4.07;;;;;;;17.65;72.91;100023.03;6206241;22;20335;-67
2022/08/09 02:10:57;;;;;;;7.72;4.20;;;;;;;17.62;73.11;100024.13;6229710;22;20016;-69
2022/08/09 02:13:24;;;;;;;6.65;3.95;;;;;;;17.59;73.36;100029.84;6228922;22;20021;-68
2022/08/09 02:15:51;;;;;;;6.78;5.43;;;;;;;17.60;72.95;100044.16;6201764;22;20047;-68
2022/08/09 02:18:24;;;;;;;6.15;3.75;;;;;;;17.62;73.02;100037.59;6229022;22;20046;-67
2022/08/09 02:20:56;;;;;;;6.47;3.53;;;;;;;17.59;72.75;100032.53;6229325;22;20043;-71
2022/08/09 02:23:58;;;;;;;10.13;4.18;;;;;;;17.65;73.22;100036.50;6226433;22;20023;-72
2022/08/09 02:26:27;;;;;;;6.03;3.58;;;;;;;17.58;72.62;100040.75;6226220;22;20065;-71
2022/08/09 02:28:56;;;;;;;5.63;3.67;;;;;;;17.56;72.79;100043.59;6227932;22;20343;-70
2022/08/09 02:31:26;;;;;;;6.32;4.03;;;;;;;17.55;72.54;100033.81;6202625;22;20085;-70
2022/08/09 02:33:54;;;;;;;5.95;3.78;;;;;;;17.58;71.95;100047.00;6228104;22;20046;-71
2022/08/09 02:36:25;;;;;;;5.40;3.38;;;;;;;17.54;72.79;100050.97;6233060;22;20023;-78
2022/08/09 02:38:53;;;;;;;4.13;3.72;;;;;;;17.50;73.52;100051.38;6233757;22;20026;-78
2022/08/09 02:41:25;;;;;;;6.78;3.90;;;;;;;17.53;72.46;100054.66;6230549;22;20022;-76
2022/08/09 02:43:53;;;;;;;7.03;3.80;;;;;;;17.50;71.82;100054.94;6232241;22;20022;-76
2022/08/09 02:46:18;;;;;;;3.97;3.30;;;;;;;17.52;71.89;100057.50;6232550;22;20461;-75
2022/08/09 02:48:44;;;;;;;4.90;3.05;;;;;;;17.58;71.15;100063.19;6204314;22;20431;-73
2022/08/09 02:51:11;;;;;;;3.78;2.85;;;;;;;17.62;71.07;100061.03;6231994;22;20015;-77
2022/08/09 02:53:41;;;;;;;5.82;3.10;;;;;;;17.64;70.95;100070.72;6207214;22;20340;-81
2022/08/09 02:56:08;;;;;;;7.93;3.33;;;;;;;17.68;70.92;100077.53;6233116;22;20020;-80
2022/08/09 02:58:34;;;;;;;9.00;3.40;;;;;;;17.72;70.68;100080.75;6205769;22;20047;-73
2022/08/09 03:01:00;;;;;;;7.35;3.75;;;;;;;17.75;70.42;100073.25;6231816;22;20478;-75
2022/08/09 03:03:27;;;;;;;6.93;3.08;;;;;;;17.81;69.64;100069.13;6232753;22;20462;-79
2022/08/09 03:05:55;;;;;;;5.10;3.08;;;;;;;17.85;70.17;100069.66;6219405;22;20011;-72
2022/08/09 03:08:22;;;;;;;5.53;3.10;;;;;;;17.88;70.42;100069.38;6236347;22;20019;-72
2022/08/09 03:10:48;;;;;;;5.78;3.28;;;;;;;17.92;70.24;100077.06;6236519;22;20060;-72
2022/08/09 03:13:14;;;;;;;6.60;3.03;;;;;;;17.99;69.61;100069.22;6206550;22;20073;-72
2022/08/09 03:15:39;;;;;;;3.78;3.05;;;;;;;18.06;69.95;100063.06;6239598;22;20022;-76
2022/08/09 03:18:05;;;;;;;3.83;3.53;;;;;;;18.13;69.42;100055.25;6246037;22;20011;-75
2022/08/09 03:20:30;;;;;;;8.77;3.92;;;;;;;18.19;69.48;100072.69;6221662;22;20020;-76
2022/08/09 03:22:56;;;;;;;3.25;2.95;;;;;;;18.25;69.53;100059.47;6242492;22;20030;-75
2022/08/09 03:25:21;;;;;;;4.55;3.33;;;;;;;18.31;69.39;100048.06;6244968;22;20465;-73
2022/08/09 03:27:49;;;;;;;4.20;3.45;;;;;;;18.40;68.94;100057.09;6244823;22;20071;-76
2022/08/09 03:30:15;;;;;;;7.28;3.47;;;;;;;18.45;68.99;100062.94;6244995;22;20016;-73
2022/08/09 03:32:41;;;;;;;3.90;3.50;;;;;;;18.47;68.45;100055.53;6237141;22;20020;-75
2022/08/09 03:35:06;;;;;;;4.32;3.28;;;;;;;18.48;67.97;100052.69;6243949;22;20018;-75
2022/08/09 03:37:31;;;;;;;5.03;3.72;;;;;;;18.51;67.72;100056.91;6233960;22;20015;-75
2022/08/09 03:39:56;;;;;;;4.93;3.42;;;;;;;18.49;67.97;100059.78;6234665;22;20023;-74
2022/08/09 03:42:21;;;;;;;6.18;3.53;;;;;;;18.50;67.73;100053.41;6204040;22;20020;-75
2022/08/09 03:44:46;;;;;;;4.32;3.35;;;;;;;18.50;67.34;100064.19;6229188;22;20015;-76
2022/08/09 03:47:10;;;;;;;5.38;3.40;;;;;;;18.50;67.41;100066.91;6230984;22;20061;-76
2022/08/09 03:49:36;;;;;;;4.30;3.70;;;;;;;18.58;67.48;100066.16;6231057;22;20019;-75
2022/08/09 03:52:02;;;;;;;7.72;3.38;;;;;;;18.65;66.89;100063.69;6230918;22;20343;-74
2022/08/09 03:54:31;;;;;;;5.50;3.67;;;;;;;18.73;66.54;100070.06;6204546;22;20237;-75
2022/08/09 03:56:59;;;;;;;3.92;3.53;;;;;;;18.79;66.91;100069.44;6229425;22;20058;-75
2022/08/09 03:59:24;;;;;;;4.38;3.38;;;;;;;18.86;66.23;100075.94;6204976;22;20019;-74
2022/08/09 04:01:51;;;;;;;6.15;4.00;;;;;;;18.94;66.02;100069.78;6230367;22;20343;-75
2022/08/09 04:04:17;;;;;;;4.05;3.15;;;;;;;19.04;65.72;100070.56;6205173;22;20099;-76
2022/08/09 04:06:42;;;;;;;8.45;3.45;;;;;;;19.16;65.37;100071.19;6180703;22;20647;-74
2022/08/09 04:09:06;;;;;;;5.38;3.55;;;;;;;19.27;64.97;100080.91;6204926;22;20351;-77
2022/08/09 04:12:09;;;;;;;4.15;3.22;;;;;;;19.47;65.30;100067.09;6235260;22;20418;-76
2022/08/09 04:14:35;;;;;;;4.85;3.20;;;;;;;19.43;64.72;100073.78;6141657;23;20138;-74
2022/08/09 04:16:59;;;;;;;6.53;3.70;;;;;;;19.44;64.92;100069.22;6088503;23;20036;-74
2022/08/09 04:19:24;;;;;;;5.00;3.08;;;;;;;19.42;64.37;100063.97;6112906;23;20021;-75
2022/08/09 04:21:49;;;;;;;8.88;3.55;;;;;;;19.38;64.30;100073.44;6088305;23;20020;-75
2022/08/09 04:24:14;;;;;;;6.65;3.42;;;;;;;19.33;64.42;100075.72;6088949;23;20016;-74
2022/08/09 04:26:39;;;;;;;4.75;3.45;;;;;;;19.30;64.33;100073.31;6138638;23;20071;-76
2022/08/09 04:29:04;;;;;;;5.13;3.22;;;;;;;19.30;64.32;100072.50;6113960;23;20032;-76
2022/08/09 04:31:29;;;;;;;5.97;3.80;;;;;;;19.29;64.78;100076.22;6139374;23;20024;-76
2022/08/09 04:33:54;;;;;;;10.63;4.38;;;;;;;19.29;64.58;100074.38;6113984;23;20017;-76
2022/08/09 04:36:23;;;;;;;8.88;3.72;;;;;;;19.30;64.36;100069.81;6089757;23;20100;-75
2022/08/09 04:38:48;;;;;;;4.47;3.45;;;;;;;19.28;64.57;100061.00;6089065;23;20016;-75
2022/08/09 04:41:13;;;;;;;12.65;4.78;;;;;;;19.29;64.18;100073.50;6138232;23;20043;-76
2022/08/09 04:43:38;;;;;;;5.63;3.40;;;;;;;19.28;64.48;100071.81;6091467;23;20048;-76
2022/08/09 04:46:02;;;;;;;5.93;3.83;;;;;;;19.30;64.29;100067.09;6141668;23;20017;-75
2022/08/09 04:48:27;;;;;;;10.15;3.83;;;;;;;19.31;63.89;100057.97;6184444;22;20461;-76
2022/08/09 04:50:52;;;;;;;6.95;3.78;;;;;;;19.35;63.70;100062.06;6232971;22;20562;-76
2022/08/09 04:53:17;;;;;;;5.47;3.78;;;;;;;19.37;63.68;100057.34;6231858;22;20019;-77
2022/08/09 04:55:41;;;;;;;5.57;3.10;;;;;;;19.41;63.75;100047.94;6231684;22;20015;-76
2022/08/09 04:58:06;;;;;;;7.07;3.85;;;;;;;19.45;63.50;100042.03;6230814;22;20094;-75
2022/08/09 05:00:33;;;;;;;20.02;7.45;;;;;;;19.40;62.47;100038.13;6231316;22;20012;-76
2022/08/09 05:03:00;;;;;;;7.35;3.80;;;;;;;19.35;62.46;100035.03;6231709;22;20015;-77
2022/08/09 05:05:25;;;;;;;6.15;3.85;;;;;;;19.33;61.73;100042.44;6231015;22;20011;-75
2022/08/09 05:07:49;;;;;;;5.95;3.17;;;;;;;19.32;61.43;100040.75;6230813;22;20028;-76
2022/08/09 05:10:14;;;;;;;8.65;3.60;;;;;;;19.29;60.55;100046.47;6231788;22;20027;-76
2022/08/09 05:12:40;;;;;;;6.13;3.58;;;;;;;19.23;60.46;100047.94;6232149;22;20015;-76
2022/08/09 05:15:06;;;;;;;6.57;4.43;;;;;;;19.19;61.05;100041.13;6231967;22;20016;-76
2022/08/09 05:17:30;;;;;;;6.22;3.90;;;;;;;19.21;63.04;100037.28;6231581;22;20088;-77
2022/08/09 05:19:55;;;;;;;4.50;2.78;;;;;;;19.28;63.59;100036.66;6229479;22;20038;-74
2022/08/09 05:22:20;;;;;;;8.63;3.67;;;;;;;19.34;63.87;100044.13;6228996;22;20058;-73
2022/08/09 05:24:45;;;;;;;5.82;3.83;;;;;;;19.41;63.90;100040.66;6212945;22;20490;-73
2022/08/09 05:27:10;;;;;;;4.00;3.42;;;;;;;19.52;63.21;100042.31;6237880;22;20015;-73
2022/08/09 05:29:35;;;;;;;6.25;3.03;;;;;;;19.58;62.98;100037.13;6241867;22;20023;-77
2022/08/09 05:32:00;;;;;;;7.18;3.72;;;;;;;19.67;62.44;100045.28;6248201;22;20012;-76
2022/08/09 05:34:29;;;;;;;7.10;3.45;;;;;;;19.75;61.91;100046.19;6213305;22;20042;-76
2022/08/09 05:36:55;;;;;;;11.55;4.97;;;;;;;19.91;61.49;100037.34;6232131;22;20022;-77
2022/08/09 05:39:19;;;;;;;5.75;4.00;;;;;;;20.08;61.09;100035.59;6205934;22;20023;-77
2022/08/09 05:41:44;;;;;;;4.45;3.30;;;;;;;20.24;60.06;100038.34;6232845;22;20019;-77
2022/08/09 05:44:10;;;;;;;10.38;4.05;;;;;;;20.45;58.63;100041.53;6229116;22;20019;-74
2022/08/09 05:46:34;;;;;;;15.15;4.22;;;;;;;20.63;58.04;100046.88;6229191;22;20451;-75
2022/08/09 05:48:59;;;;;;;8.02;3.05;;;;;;;20.74;57.38;100045.72;6228671;22;20328;-75
2022/08/09 05:51:24;;;;;;;8.75;2.92;;;;;;;20.83;57.03;100045.56;6230455;22;20012;-74
2022/08/09 05:53:49;;;;;;;10.30;3.38;;;;;;;20.96;56.74;100039.66;6228074;22;20659;-75
2022/08/09 05:56:14;;;;;;;10.23;3.63;;;;;;;21.11;56.34;100043.41;6202698;22;20019;-74
2022/08/09 05:58:39;;;;;;;9.52;3.35;;;;;;;21.41;55.94;100047.38;6202750;22;20103;-74
2022/08/09 06:01:03;;;;;;;8.23;3.40;;;;;;;21.91;54.40;100049.84;6229996;22;20012;-73
2022/08/09 06:03:28;;;;;;;5.07;3.80;;;;;;;22.15;53.41;100049.00;6229746;22;20477;-74
2022/08/09 06:05:53;;;;;;;5.68;3.40;;;;;;;22.32;52.28;100049.81;6230256;22;20024;-74
2022/08/09 06:08:18;;;;;;;6.10;3.58;;;;;;;22.26;52.25;100053.19;6251182;22;20014;-76
2022/08/09 06:10:42;;;;;;;7.50;3.45;;;;;;;22.04;52.96;100047.50;6250445;22;20115;-76
2022/08/09 06:13:11;;;;;;;8.02;4.13;;;;;;;21.77;53.67;100052.44;6206549;22;20469;-74
2022/08/09 06:15:36;;;;;;;7.78;3.53;;;;;;;21.52;54.00;100057.03;6236940;22;20071;-75
2022/08/09 06:18:01;;;;;;;6.40;4.10;;;;;;;21.30;54.80;100036.84;6246570;22;20023;-76
2022/08/09 06:20:26;;;;;;;5.45;4.07;;;;;;;20.97;54.29;100033.22;6244445;22;20016;-77
2022/08/09 06:22:51;;;;;;;5.10;3.20;;;;;;;20.78;54.97;100030.78;6233262;22;20019;-74
2022/08/09 06:25:16;;;;;;;6.22;3.30;;;;;;;20.66;55.13;100030.25;6205254;22;20020;-76
2022/08/09 06:27:41;;;;;;;7.32;3.95;;;;;;;20.63;55.16;100034.16;6228981;22;20020;-75
2022/08/09 06:30:06;;;;;;;8.90;3.70;;;;;;;20.67;55.10;100046.34;6230425;22;20323;-75
2022/08/09 06:32:31;;;;;;;5.32;3.72;;;;;;;20.65;54.41;100037.53;6229978;22;20069;-74
2022/08/09 06:34:56;;;;;;;10.82;4.50;;;;;;;20.51;54.81;100040.91;6202458;22;20023;-74
2022/08/09 06:37:21;;;;;;;6.25;3.78;;;;;;;20.33;55.19;100037.38;6202413;22;20016;-74
2022/08/09 06:39:45;;;;;;;9.52;3.50;;;;;;;20.13;55.96;100046.75;6228317;22;20422;-75
2022/08/09 06:42:10;;;;;;;6.13;3.40;;;;;;;19.91;56.30;100040.03;6202516;22;20011;-74
2022/08/09 06:44:35;;;;;;;6.43;4.20;;;;;;;19.70;56.80;100048.53;6228712;22;20486;-75
2022/08/09 06:46:59;;;;;;;9.50;3.78;;;;;;;19.56;56.85;100039.13;6229468;22;20065;-74
2022/08/09 06:49:24;;;;;;;9.18;3.47;;;;;;;19.42;57.10;100025.28;6203429;22;20012;-75
2022/08/09 06:51:49;;;;;;;6.93;3.70;;;;;;;19.38;57.11;100035.56;6228339;22;20015;-76
2022/08/09 06:54:14;;;;;;;6.28;3.90;;;;;;;19.42;58.42;100031.53;6230485;22;20021;-77
2022/08/09 06:56:38;;;;;;;11.73;3.70;;;;;;;19.50;59.45;100031.66;6205070;22;20091;-77
2022/08/09 06:59:03;;;;;;;12.27;3.95;;;;;;;19.64;60.26;100029.38;6230362;22;20019;-77
2022/08/09 07:01:28;;;;;;;11.80;6.25;;;;;;;19.76;60.33;100045.16;6205035;22;20046;-75
2022/08/09 07:03:53;;;;;;;7.43;4.00;;;;;;;19.89;60.27;100036.63;6232152;22;20030;-75
2022/08/09 07:06:17;;;;;;;5.07;3.45;;;;;;;20.00;60.25;100032.81;6231940;22;20455;-74
2022/08/09 07:08:42;;;;;;;9.15;3.35;;;;;;;20.06;60.03;100054.69;6203244;22;20022;-75
2022/08/09 07:11:07;;;;;;;14.93;3.55;;;;;;;20.09;59.47;100054.34;6202586;22;20020;-72
2022/08/09 07:13:33;;;;;;;11.93;3.53;;;;;;;20.19;59.25;100065.09;6227588;22;20020;-72
2022/08/09 07:15:58;;;;;;;7.88;3.67;;;;;;;20.30;59.02;100056.69;6227413;22;20012;-73
2022/08/09 07:18:22;;;;;;;8.88;3.33;;;;;;;20.46;58.87;100059.47;6227628;22;20077;-72
2022/08/09 07:20:49;;;;;;;13.20;4.10;;;;;;;20.56;58.53;100051.22;6202757;22;20047;-71
2022/08/09 07:23:14;;;;;;;9.57;3.75;;;;;;;20.60;58.43;100050.75;6231009;22;20420;-73
2022/08/09 07:25:39;;;;;;;11.52;4.90;;;;;;;20.64;57.93;100053.97;6230855;22;20411;-75
2022/08/09 07:28:03;;;;;;;13.98;3.63;;;;;;;20.76;57.46;100054.53;6229509;22;20015;-74
2022/08/09 07:30:28;;;;;;;11.55;4.05;;;;;;;21.01;56.51;100058.97;6203726;22;20007;-72
2022/08/09 07:32:53;;;;;;;9.00;3.80;;;;;;;21.43;55.53;100058.06;6229416;22;20026;-74
2022/08/09 07:35:18;;;;;;;8.45;3.70;;;;;;;21.83;53.12;100054.47;6231235;22;20023;-70
2022/08/09 07:37:43;;;;;;;6.65;3.85;;;;;;;22.02;52.07;100054.97;6204613;22;20438;-74
2022/08/09 07:40:09;;;;;;;6.10;3.40;;;;;;;22.04;52.25;100052.91;6231213;22;20021;-74
2022/08/09 07:42:58;;;;;;;8.70;3.85;;;;;;;22.08;53.04;100043.41;6231398;22;20019;-74
2022/08/09 07:45:25;;;;;;;8.70;3.78;;;;;;;21.83;52.06;100036.31;6229717;22;20099;-74
2022/08/09 07:47:51;;;;;;;6.45;3.55;;;;;;;21.72;52.27;100025.81;6233062;22;20027;-75
2022/08/09 07:50:16;;;;;;;9.18;3.70;;;;;;;21.77;52.52;100028.03;6206714;22;20007;-75
2022/08/09 07:52:40;;;;;;;11.73;4.20;;;;;;;22.09;51.81;100045.13;6232253;22;20050;-76
2022/08/09 07:55:05;;;;;;;9.10;4.03;;;;;;;22.54;50.79;100059.91;6230949;22;20034;-77
2022/08/09 07:57:33;;;;;;;4.47;3.05;;;;;;;22.95;49.80;100073.31;6233197;22;20020;-79
2022/08/09 07:59:57;;;;;;;6.82;3.55;;;;;;;23.37;48.80;100062.81;6231735;22;20028;-76
2022/08/09 08:02:23;;;;;;;8.50;3.10;;;;;;;24.09;47.08;100056.94;6206031;22;20012;-77
2022/08/09 08:04:47;;;;;;;4.72;2.83;;;;;;;24.59;45.66;100056.22;6205304;22;20101;-76
2022/08/09 08:07:13;;;;;;;6.55;3.40;;;;;;;25.03;44.90;100056.16;6233052;22;20020;-79
2022/08/09 08:09:37;;;;;;;5.78;3.13;;;;;;;25.59;44.28;100065.34;6232146;22;20019;-75
2022/08/09 08:12:02;;;;;;;6.43;3.13;;;;;;;26.08;42.56;100059.00;6206860;22;20069;-76
2022/08/09 08:14:27;;;;;;;7.10;3.17;;;;;;;26.51;42.06;100058.91;6232233;22;20056;-76
2022/08/09 08:16:52;;;;;;;7.20;2.67;;;;;;;26.85;41.03;100064.31;6233495;22;20414;-75
2022/08/09 08:19:16;;;;;;;4.00;2.88;;;;;;;26.96;40.15;100063.75;6232339;22;20020;-76
2022/08/09 08:21:41;;;;;;;5.07;3.00;;;;;;;26.99;40.10;100063.31;6232569;22;20339;-74
2022/08/09 08:24:06;;;;;;;3.05;2.75;;;;;;;27.11;39.29;100069.91;6207992;22;20019;-76
2022/08/09 08:26:32;;;;;;;5.10;3.78;;;;;;;27.41;39.22;100073.13;6208658;22;20019;-78
2022/08/09 08:28:57;;;;;;;9.40;3.15;;;;;;;27.85;38.28;100068.13;6233155;22;20089;-76
2022/08/09 08:31:23;;;;;;;10.35;2.65;;;;;;;28.27;37.52;100077.81;6230953;22;20042;-76
2022/08/09 08:33:48;;;;;;;5.00;2.80;;;;;;;28.61;36.47;100076.69;6230863;22;20027;-75
2022/08/09 08:36:13;;;;;;;4.95;2.97;;;;;;;28.82;36.25;100065.44;6233371;22;20358;-77
2022/08/09 08:38:37;;;;;;;6.15;3.50;;;;;;;29.08;35.61;100072.72;6234194;22;20672;-74
2022/08/09 08:41:03;;;;;;;7.80;3.33;;;;;;;29.31;35.27;100077.66;6230315;22;20145;-75
2022/08/09 08:43:28;;;;;;;6.55;3.20;;;;;;;29.34;35.05;100072.56;6230781;22;20042;-75
2022/08/09 08:45:57;;;;;;;9.77;3.67;;;;;;;29.14;35.63;100077.31;6232252;22;20019;-75
2022/08/09 08:48:23;;;;;;;4.93;3.08;;;;;;;28.56;35.84;100076.50;6229966;22;20019;-75
2022/08/09 08:50:48;;;;;;;4.38;3.20;;;;;;;28.06;37.32;100073.41;6228991;22;20012;-73
2022/08/09 08:53:16;;;;;;;6.60;3.47;;;;;;;27.73;37.63;100087.09;6230706;22;20118;-74
2022/08/09 08:55:45;;;;;;;5.43;3.20;;;;;;;27.42;38.47;100082.19;6230491;22;20030;-74
2022/08/09 08:58:10;;;;;;;8.70;3.28;;;;;;;27.65;37.70;100074.44;6231138;22;20015;-74
2022/08/09 09:00:35;;;;;;;10.15;3.47;;;;;;;28.23;37.45;100077.41;6205820;22;20165;-73
2022/08/09 09:03:02;;;;;;;8.10;3.03;;;;;;;28.72;36.32;100079.59;6232721;22;20019;-74
2022/08/09 09:05:27;;;;;;;3.38;3.10;;;;;;;29.08;35.64;100078.22;6230249;22;20062;-73
2022/08/09 09:07:52;;;;;;;3.67;2.83;;;;;;;29.44;35.21;100077.59;6230325;22;20047;-73
2022/08/09 09:10:18;;;;;;;4.22;3.05;;;;;;;29.69;34.16;100074.88;6230471;22;20094;-74
2022/08/09 09:12:45;;;;;;;4.57;3.10;;;;;;;30.49;33.44;100071.19;6228070;22;20015;-73
2022/08/09 09:15:09;;;;;;;7.60;3.90;;;;;;;31.89;31.30;100071.84;6232011;22;20020;-73
2022/08/09 09:17:36;;;;;;;5.15;2.88;;;;;;;32.38;29.86;100065.06;6239367;22;20024;-76
2022/08/09 09:20:00;;;;;;;3.15;2.85;;;;;;;32.60;29.66;100062.50;6239071;22;20012;-79
2022/08/09 09:22:25;;;;;;;4.25;3.13;;;;;;;33.24;28.44;100067.97;6181045;22;20065;-80
2022/08/09 09:24:54;;;;;;;5.05;3.53;;;;;;;34.28;27.50;100066.50;6233910;22;20050;-78
2022/08/09 09:27:19;;;;;;;5.88;3.08;;;;;;;35.09;25.94;100059.28;6205900;22;20041;-78
2022/08/09 09:29:44;;;;;;;5.65;3.40;;;;;;;34.74;25.87;100056.06;6233234;22;20007;-77
2022/08/09 09:32:09;;;;;;;6.70;3.10;;;;;;;34.29;26.71;100059.03;6233821;22;20142;-78
2022/08/09 09:34:35;;;;;;;3.95;3.25;;;;;;;34.36;26.66;100057.75;6234294;22;20023;-79
2022/08/09 09:37:02;;;;;;;4.47;3.50;;;;;;;33.95;26.88;100064.59;6233174;22;20019;-78
2022/08/09 09:39:28;;;;;;;3.85;3.25;;;;;;;33.35;28.07;100056.88;6180966;22;20012;-78
2022/08/09 09:41:53;;;;;;;3.70;3.20;;;;;;;32.57;29.42;100056.59;6232972;22;20020;-78
2022/08/09 09:44:32;;;;;;;4.60;3.13;;;;;;;31.65;30.29;100059.94;6233610;22;20094;-77
2022/08/09 09:47:12;;;;;;;4.93;3.30;;;;;;;30.46;32.38;100046.88;6212702;22;20051;-77
2022/08/09 09:49:38;;;;;;;5.90;3.35;;;;;;;29.49;33.44;100048.38;6206196;22;20320;-78
2022/08/09 09:52:07;;;;;;;4.30;3.03;;;;;;;28.83;34.42;100054.25;6232296;22;20086;-77
2022/08/09 09:54:42;;;;;;;4.25;3.10;;;;;;;28.69;35.21;100044.34;6230919;22;20018;-79
2022/08/09 09:57:18;;;;;;;3.50;3.20;;;;;;;29.84;34.01;100048.75;6231234;22;20074;-80
2022/08/09 09:59:44;;;;;;;9.07;3.20;;;;;;;30.92;31.50;100048.25;6232221;22;20023;-77
2022/08/09 10:02:09;;;;;;;9.10;3.20;;;;;;;32.03;29.99;100053.16;6230345;22;20019;-78
2022/08/09 10:04:34;;;;;;;4.18;3.10;;;;;;;33.22;28.48;100048.84;6230831;22;20024;-77
2022/08/09 10:06:59;;;;;;;5.30;3.38;;;;;;;34.17;27.78;100051.66;6233886;22;20076;-79
2022/08/09 10:09:24;;;;;;;4.68;3.33;;;;;;;34.20;26.85;100045.56;6229575;22;20515;-78
2022/08/09 10:12:00;;;;;;;3.65;3.15;;;;;;;33.79;28.12;100040.50;6202567;22;20095;-79
2022/08/09 10:14:27;;;;;;;5.32;3.50;;;;;;;33.29;28.43;100041.28;6229912;22;20451;-79
2022/08/09 10:16:52;;;;;;;3.80;3.40;;;;;;;32.85;28.82;100042.88;6177771;22;20011;-78
2022/08/09 10:19:17;;;;;;;6.25;3.30;;;;;;;32.67;29.44;100041.09;6202329;22;20015;-82
2022/08/09 10:21:48;;;;;;;4.50;3.50;;;;;;;32.13;30.18;100038.75;6228215;22;20045;-82
2022/08/09 10:24:14;;;;;;;3.40;3.10;;;;;;;31.66;30.52;100033.22;6202709;22;20024;-79
2022/08/09 10:26:39;;;;;;;3.92;3.40;;;;;;;32.94;29.47;100032.28;6200447;22;20125;-79
2022/08/09 10:29:04;;;;;;;5.25;3.35;;;;;;;33.83;27.54;100044.47;6227930;22;20019;-81
2022/08/09 10:31:29;;;;;;;3.95;3.30;;;;;;;33.61;27.85;100038.81;6202508;22;20011;-77
2022/08/09 10:33:54;;;;;;;3.90;3.50;;;;;;;32.88;28.98;100041.53;6201974;22;20030;-78
2022/08/09 10:36:18;;;;;;;4.18;3.35;;;;;;;31.97;30.36;100043.91;6227598;22;20350;-75
2022/08/09 10:38:44;;;;;;;4.00;3.50;;;;;;;31.10;31.62;100051.00;6229719;22;20358;-76
2022/08/09 10:41:10;;;;;;;4.95;3.20;;;;;;;30.38;32.68;100038.91;6227625;22;20347;-76
2022/08/09 10:43:36;;;;;;;6.38;4.00;;;;;;;29.91;33.53;100044.00;6177073;22;20015;-76
2022/08/09 10:46:16;;;;;;;4.35;3.60;;;;;;;29.65;34.36;100041.50;6228247;22;20026;-77
2022/08/09 10:48:48;;;;;;;6.43;3.47;;;;;;;29.58;34.64;100058.03;6229310;22;20015;-77
2022/08/09 10:51:24;;;;;;;8.00;6.13;;;;;;;29.05;34.59;100053.94;6202327;22;20016;-75
2022/08/09 10:54:12;;;;;;;3.45;3.15;;;;;;;28.53;35.38;100051.19;6229297;22;20019;-77
2022/08/09 10:56:39;;;;;;;3.60;3.22;;;;;;;27.96;36.72;100051.91;6230525;22;20016;-76
2022/08/09 10:59:22;;;;;;;4.13;3.35;;;;;;;27.83;36.87;100050.00;6229635;22;20486;-76
2022/08/09 11:01:51;;;;;;;8.20;4.38;;;;;;;27.40;38.02;100051.44;6229408;22;20011;-78
2022/08/09 11:04:20;;;;;;;6.53;3.40;;;;;;;27.28;38.02;100056.69;6203885;22;20362;-77
2022/08/09 11:06:45;;;;;;;3.65;3.22;;;;;;;27.05;38.18;100048.00;6229680;22;20451;-77
2022/08/09 11:09:14;;;;;;;7.78;3.20;;;;;;;26.82;38.84;100048.31;6231053;22;20077;-76
2022/08/09 11:11:56;;;;;;;5.07;3.20;;;;;;;26.63;38.50;100038.13;6203924;22;20020;-77
2022/08/09 11:14:34;;;;;;;7.68;3.38;;;;;;;26.34;39.27;100039.25;6230041;22;20359;-77
2022/08/09 11:16:59;;;;;;;4.68;3.20;;;;;;;26.04;39.92;100038.63;6229846;22;20026;-78
2022/08/09 11:20:00;;;;;;;3.83;3.08;;;;;;;25.97;39.85;100038.56;6208258;22;20020;-78
2022/08/09 11:22:43;;;;;;;5.22;3.03;;;;;;;25.77;40.12;100040.28;6190379;22;20376;-76